sensor_id;sensor_type;location;lat;lon;timestamp;pressure;altitude;pressure_sealevel;temperature
64458;BMP280;58438;51.200;7.252;2023-04-25T00:02:38;97148.75;;;4.96
64458;BMP280;58438;51.200;7.252;2023-04-25T00:05:26;97154.84;;;4.87
64458;BMP280;58438;51.200;7.252;2023-04-25T00:08:16;97151.59;;;4.83
64458;BMP280;58438;51.200;7.252;2023-04-25T00:11:08;97145.88;;;4.81
64458;BMP280;58438;51.200;7.252;2023-04-25T00:13:57;97151.59;;;4.83
64458;BMP280;58438;51.200;7.252;2023-04-25T00:16:47;97151.84;;;4.85
64458;BMP280;58438;51.200;7.252;2023-04-25T00:19:39;97150.22;;;4.88
64458;BMP280;58438;51.200;7.252;2023-04-25T00:22:28;97140.78;;;4.92
64458;BMP280;58438;51.200;7.252;2023-04-25T00:25:18;97136.59;;;4.82
64458;BMP280;58438;51.200;7.252;2023-04-25T00:28:09;97135.09;;;4.81
64458;BMP280;58438;51.200;7.252;2023-04-25T00:30:59;97142.28;;;4.84
64458;BMP280;58438;51.200;7.252;2023-04-25T00:33:48;97138.22;;;4.80
64458;BMP280;58438;51.200;7.252;2023-04-25T00:36:38;97142.00;;;4.82
64458;BMP280;58438;51.200;7.252;2023-04-25T00:39:27;97145.00;;;4.84
64458;BMP280;58438;51.200;7.252;2023-04-25T00:42:17;97141.38;;;4.87
64458;BMP280;58438;51.200;7.252;2023-04-25T00:45:08;97138.66;;;4.87
64458;BMP280;58438;51.200;7.252;2023-04-25T00:47:59;97135.66;;;4.85
64458;BMP280;58438;51.200;7.252;2023-04-25T00:50:51;97131.34;;;4.79
64458;BMP280;58438;51.200;7.252;2023-04-25T00:53:40;97132.72;;;4.83
64458;BMP280;58438;51.200;7.252;2023-04-25T00:56:30;97131.78;;;4.86
64458;BMP280;58438;51.200;7.252;2023-04-25T00:59:19;97142.00;;;4.82
64458;BMP280;58438;51.200;7.252;2023-04-25T01:02:07;97137.47;;;4.88
64458;BMP280;58438;51.200;7.252;2023-04-25T01:04:55;97142.56;;;4.86
64458;BMP280;58438;51.200;7.252;2023-04-25T01:07:43;97133.91;;;4.91
64458;BMP280;58438;51.200;7.252;2023-04-25T01:10:30;97140.31;;;4.85
64458;BMP280;58438;51.200;7.252;2023-04-25T01:13:17;97134.94;;;4.85
64458;BMP280;58438;51.200;7.252;2023-04-25T01:16:05;97135.25;;;4.87
64458;BMP280;58438;51.200;7.252;2023-04-25T01:18:54;97136.31;;;4.89
64458;BMP280;58438;51.200;7.252;2023-04-25T01:21:43;97139.44;;;4.88
64458;BMP280;58438;51.200;7.252;2023-04-25T01:24:31;97136.44;;;4.86
64458;BMP280;58438;51.200;7.252;2023-04-25T01:27:18;97139.00;;;4.89
64458;BMP280;58438;51.200;7.252;2023-04-25T01:30:07;97135.09;;;4.90
64458;BMP280;58438;51.200;7.252;2023-04-25T01:32:54;97140.78;;;4.92
64458;BMP280;58438;51.200;7.252;2023-04-25T01:35:42;97145.13;;;4.90
64458;BMP280;58438;51.200;7.252;2023-04-25T01:38:30;97150.69;;;4.95
64458;BMP280;58438;51.200;7.252;2023-04-25T01:41:18;97147.56;;;4.97
64458;BMP280;58438;51.200;7.252;2023-04-25T01:46:52;97151.59;;;4.92
64458;BMP280;58438;51.200;7.252;2023-04-25T01:49:40;97149.66;;;4.93
64458;BMP280;58438;51.200;7.252;2023-04-25T01:52:27;97147.81;;;4.90
64458;BMP280;58438;51.200;7.252;2023-04-25T01:55:15;97154.56;;;4.94
64458;BMP280;58438;51.200;7.252;2023-04-25T01:58:03;97149.06;;;4.98
64458;BMP280;58438;51.200;7.252;2023-04-25T02:00:55;97152.50;;;4.98
64458;BMP280;58438;51.200;7.252;2023-04-25T02:03:42;97150.38;;;5.02
64458;BMP280;58438;51.200;7.252;2023-04-25T02:06:30;97157.91;;;4.98
64458;BMP280;58438;51.200;7.252;2023-04-25T02:09:18;97160.59;;;4.98
64458;BMP280;58438;51.200;7.252;2023-04-25T02:12:07;97158.78;;;4.95
64458;BMP280;58438;51.200;7.252;2023-04-25T02:14:54;97163.72;;;4.97
64458;BMP280;58438;51.200;7.252;2023-04-25T02:17:41;97166.25;;;4.91
64458;BMP280;58438;51.200;7.252;2023-04-25T02:20:29;97169.56;;;4.95
64458;BMP280;58438;51.200;7.252;2023-04-25T02:23:17;97165.50;;;4.91
64458;BMP280;58438;51.200;7.252;2023-04-25T02:26:04;97164.00;;;4.90
64458;BMP280;58438;51.200;7.252;2023-04-25T02:28:53;97155.78;;;4.84
64458;BMP280;58438;51.200;7.252;2023-04-25T02:31:40;97158.75;;;4.86
64458;BMP280;58438;51.200;7.252;2023-04-25T02:34:27;97168.34;;;4.87
64458;BMP280;58438;51.200;7.252;2023-04-25T02:37:14;97159.03;;;4.88
64458;BMP280;58438;51.200;7.252;2023-04-25T02:40:02;97165.06;;;4.92
64458;BMP280;58438;51.200;7.252;2023-04-25T02:42:50;97174.19;;;4.86
64458;BMP280;58438;51.200;7.252;2023-04-25T02:45:39;97177.34;;;4.84
64458;BMP280;58438;51.200;7.252;2023-04-25T02:48:26;97171.94;;;4.84
64458;BMP280;58438;51.200;7.252;2023-04-25T02:51:14;97180.63;;;4.88
64458;BMP280;58438;51.200;7.252;2023-04-25T02:54:02;97172.53;;;4.88
64458;BMP280;58438;51.200;7.252;2023-04-25T02:56:49;97164.13;;;4.86
64458;BMP280;58438;51.200;7.252;2023-04-25T02:59:36;97164.13;;;4.86
64458;BMP280;58438;51.200;7.252;2023-04-25T03:02:25;97173.44;;;4.85
64458;BMP280;58438;51.200;7.252;2023-04-25T03:05:12;97178.81;;;4.85
64458;BMP280;58438;51.200;7.252;2023-04-25T03:07:59;97171.03;;;4.87
64458;BMP280;58438;51.200;7.252;2023-04-25T03:10:46;97164.91;;;4.87
64458;BMP280;58438;51.200;7.252;2023-04-25T03:13:34;97171.50;;;4.86
64458;BMP280;58438;51.200;7.252;2023-04-25T03:16:21;97178.69;;;4.89
64458;BMP280;58438;51.200;7.252;2023-04-25T03:19:10;97167.13;;;4.88
64458;BMP280;58438;51.200;7.252;2023-04-25T03:21:57;97173.72;;;4.87
64458;BMP280;58438;51.200;7.252;2023-04-25T03:24:44;97168.78;;;4.86
64458;BMP280;58438;51.200;7.252;2023-04-25T03:27:31;97169.09;;;4.88
64458;BMP280;58438;51.200;7.252;2023-04-25T03:30:18;97171.34;;;4.89
64458;BMP280;58438;51.200;7.252;2023-04-25T03:33:05;97175.22;;;4.88
64458;BMP280;58438;51.200;7.252;2023-04-25T03:35:54;97166.69;;;4.81
64458;BMP280;58438;51.200;7.252;2023-04-25T03:38:41;97166.56;;;4.84
64458;BMP280;58438;51.200;7.252;2023-04-25T03:41:28;97171.03;;;4.87
64458;BMP280;58438;51.200;7.252;2023-04-25T03:44:15;97161.44;;;4.86
64458;BMP280;58438;51.200;7.252;2023-04-25T03:47:02;97178.09;;;4.85
64458;BMP280;58438;51.200;7.252;2023-04-25T03:49:50;97174.91;;;4.86
64458;BMP280;58438;51.200;7.252;2023-04-25T03:52:39;97184.22;;;4.85
64458;BMP280;58438;51.200;7.252;2023-04-25T03:55:26;97184.97;;;4.86
64458;BMP280;58438;51.200;7.252;2023-04-25T03:58:13;97188.88;;;4.85
64458;BMP280;58438;51.200;7.252;2023-04-25T04:01:00;97188.56;;;4.83
64458;BMP280;58438;51.200;7.252;2023-04-25T04:03:49;97188.88;;;4.85
64458;BMP280;58438;51.200;7.252;2023-04-25T04:06:37;97184.66;;;4.84
64458;BMP280;58438;51.200;7.252;2023-04-25T04:09:25;97181.50;;;4.85
64458;BMP280;58438;51.200;7.252;2023-04-25T04:12:13;97195.63;;;4.89
64458;BMP280;58438;51.200;7.252;2023-04-25T04:15:00;97190.38;;;4.86
64458;BMP280;58438;51.200;7.252;2023-04-25T04:17:47;97189.47;;;4.89
64458;BMP280;58438;51.200;7.252;2023-04-25T04:20:34;97196.38;;;4.90
64458;BMP280;58438;51.200;7.252;2023-04-25T04:23:22;97203.09;;;4.85
64458;BMP280;58438;51.200;7.252;2023-04-25T04:26:11;97201.16;;;4.86
64458;BMP280;58438;51.200;7.252;2023-04-25T04:28:58;97201.44;;;4.88
64458;BMP280;58438;51.200;7.252;2023-04-25T04:31:46;97202.53;;;4.90
64458;BMP280;58438;51.200;7.252;2023-04-25T04:34:33;97201.03;;;4.89
64458;BMP280;58438;51.200;7.252;2023-04-25T04:37:21;97202.53;;;4.90
64458;BMP280;58438;51.200;7.252;2023-04-25T04:40:08;97207.91;;;4.90
64458;BMP280;58438;51.200;7.252;2023-04-25T04:42:57;97200.75;;;4.96
64458;BMP280;58438;51.200;7.252;2023-04-25T04:45:44;97208.84;;;4.96
64458;BMP280;58438;51.200;7.252;2023-04-25T04:48:31;97212.28;;;4.97
64458;BMP280;58438;51.200;7.252;2023-04-25T04:51:19;97216.31;;;4.92
64458;BMP280;58438;51.200;7.252;2023-04-25T04:54:07;97217.63;;;4.88
64458;BMP280;58438;51.200;7.252;2023-04-25T04:56:54;97235.75;;;4.87
64458;BMP280;58438;51.200;7.252;2023-04-25T04:59:43;97226.47;;;4.88
64458;BMP280;58438;51.200;7.252;2023-04-25T05:02:30;97235.00;;;4.87
64458;BMP280;58438;51.200;7.252;2023-04-25T05:05:18;97232.75;;;4.85
64458;BMP280;58438;51.200;7.252;2023-04-25T05:08:05;97244.59;;;4.88
64458;BMP280;58438;51.200;7.252;2023-04-25T05:10:52;97244.88;;;4.81
64458;BMP280;58438;51.200;7.252;2023-04-25T05:13:39;97241.91;;;4.88
64458;BMP280;58438;51.200;7.252;2023-04-25T05:16:27;97239.22;;;4.88
64458;BMP280;58438;51.200;7.252;2023-04-25T05:19:15;97248.03;;;4.88
64458;BMP280;58438;51.200;7.252;2023-04-25T05:22:02;97248.78;;;4.89
64458;BMP280;58438;51.200;7.252;2023-04-25T05:24:49;97252.22;;;4.80
64458;BMP280;58438;51.200;7.252;2023-04-25T05:27:39;97250.16;;;4.84
64458;BMP280;58438;51.200;7.252;2023-04-25T05:30:26;97265.25;;;4.82
64458;BMP280;58438;51.200;7.252;2023-04-25T05:33:15;97273.59;;;4.75
64458;BMP280;58438;51.200;7.252;2023-04-25T05:36:02;97269.59;;;4.79
64458;BMP280;58438;51.200;7.252;2023-04-25T05:38:49;97264.53;;;4.81
64458;BMP280;58438;51.200;7.252;2023-04-25T05:41:36;97273.66;;;4.84
64458;BMP280;58438;51.200;7.252;2023-04-25T05:44:23;97276.06;;;4.82
64458;BMP280;58438;51.200;7.252;2023-04-25T05:47:10;97277.13;;;4.84
64458;BMP280;58438;51.200;7.252;2023-04-25T05:49:59;97283.69;;;4.83
64458;BMP280;58438;51.200;7.252;2023-04-25T05:52:47;97287.91;;;4.84
64458;BMP280;58438;51.200;7.252;2023-04-25T05:55:34;97291.19;;;4.88
64458;BMP280;58438;51.200;7.252;2023-04-25T05:58:21;97292.06;;;4.85
64458;BMP280;58438;51.200;7.252;2023-04-25T06:01:09;97294.81;;;4.94
64458;BMP280;58438;51.200;7.252;2023-04-25T06:03:56;97300.66;;;4.93
64458;BMP280;58438;51.200;7.252;2023-04-25T06:06:45;97298.97;;;4.86
64458;BMP280;58438;51.200;7.252;2023-04-25T06:12:35;97303.50;;;4.89
64458;BMP280;58438;51.200;7.252;2023-04-25T06:15:24;97304.66;;;4.88
64458;BMP280;58438;51.200;7.252;2023-04-25T06:18:13;97309.94;;;4.92
64458;BMP280;58438;51.200;7.252;2023-04-25T06:21:01;97311.00;;;4.94
64458;BMP280;58438;51.200;7.252;2023-04-25T06:23:48;97308.78;;;5.02
64458;BMP280;58438;51.200;7.252;2023-04-25T06:26:36;97313.72;;;5.03
64458;BMP280;58438;51.200;7.252;2023-04-25T06:29:24;97317.63;;;5.02
64458;BMP280;58438;51.200;7.252;2023-04-25T06:32:11;97317.06;;;5.07
64458;BMP280;58438;51.200;7.252;2023-04-25T06:34:59;97321.75;;;5.15
64458;BMP280;58438;51.200;7.252;2023-04-25T06:37:46;97321.16;;;5.20
64458;BMP280;58438;51.200;7.252;2023-04-25T06:40:34;97316.50;;;5.21
64458;BMP280;58438;51.200;7.252;2023-04-25T06:43:21;97314.41;;;5.25
64458;BMP280;58438;51.200;7.252;2023-04-25T06:46:09;97314.16;;;5.32
64458;BMP280;58438;51.200;7.252;2023-04-25T06:48:56;97316.56;;;5.39
64458;BMP280;58438;51.200;7.252;2023-04-25T06:51:44;97323.47;;;5.49
64458;BMP280;58438;51.200;7.252;2023-04-25T06:54:31;97315.44;;;5.58
64458;BMP280;58438;51.200;7.252;2023-04-25T06:57:18;97322.34;;;5.59
64458;BMP280;58438;51.200;7.252;2023-04-25T07:00:05;97317.69;;;5.59
64458;BMP280;58438;51.200;7.252;2023-04-25T07:02:56;97320.53;;;5.65
64458;BMP280;58438;51.200;7.252;2023-04-25T07:05:44;97328.03;;;5.70
64458;BMP280;58438;51.200;7.252;2023-04-25T07:08:31;97332.06;;;5.65
64458;BMP280;58438;51.200;7.252;2023-04-25T07:11:19;97339.13;;;5.72
64458;BMP280;58438;51.200;7.252;2023-04-25T07:14:07;97349.94;;;5.63
64458;BMP280;58438;51.200;7.252;2023-04-25T07:16:54;97345.88;;;5.67
64458;BMP280;58438;51.200;7.252;2023-04-25T07:19:43;97341.41;;;5.82
64458;BMP280;58438;51.200;7.252;2023-04-25T07:22:31;97350.28;;;5.83
64458;BMP280;58438;51.200;7.252;2023-04-25T07:25:18;97354.59;;;5.80
64458;BMP280;58438;51.200;7.252;2023-04-25T07:28:05;97345.94;;;5.85
64458;BMP280;58438;51.200;7.252;2023-04-25T07:30:55;97355.56;;;6.04
64458;BMP280;58438;51.200;7.252;2023-04-25T07:33:44;97364.25;;;6.35
64458;BMP280;58438;51.200;7.252;2023-04-25T07:36:33;97361.09;;;6.55
64458;BMP280;58438;51.200;7.252;2023-04-25T07:39:21;97357.88;;;6.74
64458;BMP280;58438;51.200;7.252;2023-04-25T07:42:09;97356.22;;;6.85
64458;BMP280;58438;51.200;7.252;2023-04-25T07:44:58;97364.06;;;6.84
64458;BMP280;58438;51.200;7.252;2023-04-25T07:47:45;97363.31;;;6.74
64458;BMP280;58438;51.200;7.252;2023-04-25T07:50:32;97367.72;;;6.72
64458;BMP280;58438;51.200;7.252;2023-04-25T07:53:22;97368.59;;;6.69
64458;BMP280;58438;51.200;7.252;2023-04-25T07:56:09;97365.59;;;6.67
64458;BMP280;58438;51.200;7.252;2023-04-25T07:58:56;97373.28;;;6.68
64458;BMP280;58438;51.200;7.252;2023-04-25T08:01:44;97380.66;;;6.59
64458;BMP280;58438;51.200;7.252;2023-04-25T08:04:31;97400.44;;;6.56
64458;BMP280;58438;51.200;7.252;2023-04-25T08:07:19;97397.47;;;6.45
64458;BMP280;58438;51.200;7.252;2023-04-25T08:10:08;97404.97;;;6.32
64458;BMP280;58438;51.200;7.252;2023-04-25T08:12:58;97402.88;;;6.27
64458;BMP280;58438;51.200;7.252;2023-04-25T08:15:45;97416.06;;;6.25
64458;BMP280;58438;51.200;7.252;2023-04-25T08:18:32;97414.13;;;6.25
64458;BMP280;58438;51.200;7.252;2023-04-25T08:21:19;97416.53;;;6.23
64458;BMP280;58438;51.200;7.252;2023-04-25T08:24:07;97412.78;;;6.30
64458;BMP280;58438;51.200;7.252;2023-04-25T08:26:55;97418.03;;;6.42
64458;BMP280;58438;51.200;7.252;2023-04-25T08:29:44;97429.59;;;6.70
64458;BMP280;58438;51.200;7.252;2023-04-25T08:32:32;97428.06;;;6.78
64458;BMP280;58438;51.200;7.252;2023-04-25T08:35:19;97427.50;;;6.83
64458;BMP280;58438;51.200;7.252;2023-04-25T08:38:07;97436.81;;;6.82
64458;BMP280;58438;51.200;7.252;2023-04-25T08:40:55;97439.09;;;6.83
64458;BMP280;58438;51.200;7.252;2023-04-25T08:43:44;97445.81;;;6.79
64458;BMP280;58438;51.200;7.252;2023-04-25T08:46:32;97450.78;;;6.80
64458;BMP280;58438;51.200;7.252;2023-04-25T08:49:20;97455.31;;;6.83
64458;BMP280;58438;51.200;7.252;2023-04-25T08:52:07;97451.09;;;6.91
64458;BMP280;58438;51.200;7.252;2023-04-25T08:54:56;97457.53;;;6.93
64458;BMP280;58438;51.200;7.252;2023-04-25T08:57:44;97458.72;;;6.92
64458;BMP280;58438;51.200;7.252;2023-04-25T09:00:32;97467.63;;;6.93
64458;BMP280;58438;51.200;7.252;2023-04-25T09:03:19;97466.88;;;6.84
64458;BMP280;58438;51.200;7.252;2023-04-25T09:06:07;97472.28;;;6.84
64458;BMP280;58438;51.200;7.252;2023-04-25T09:08:55;97477.69;;;6.92
64458;BMP280;58438;51.200;7.252;2023-04-25T09:11:47;97484.13;;;7.04
64458;BMP280;58438;51.200;7.252;2023-04-25T09:14:34;97486.41;;;6.96
64458;BMP280;58438;51.200;7.252;2023-04-25T09:17:22;97490.47;;;6.92
64458;BMP280;58438;51.200;7.252;2023-04-25T09:20:10;97495.09;;;7.00
64458;BMP280;58438;51.200;7.252;2023-04-25T09:23:01;97498.72;;;6.97
64458;BMP280;58438;51.200;7.252;2023-04-25T09:25:50;97499.00;;;6.99
64458;BMP280;58438;51.200;7.252;2023-04-25T09:28:38;97503.97;;;7.01
64458;BMP280;58438;51.200;7.252;2023-04-25T09:31:25;97498.41;;;7.04
64458;BMP280;58438;51.200;7.252;2023-04-25T09:34:13;97501.09;;;7.13
64458;BMP280;58438;51.200;7.252;2023-04-25T09:37:02;97512.84;;;7.19
64458;BMP280;58438;51.200;7.252;2023-04-25T09:39:50;97506.50;;;7.31
64458;BMP280;58438;51.200;7.252;2023-04-25T09:42:40;97518.41;;;7.66
64458;BMP280;58438;51.200;7.252;2023-04-25T10:02:12;97544.69;;;7.42
64458;BMP280;58438;51.200;7.252;2023-04-25T10:05:00;97544.66;;;7.51
64458;BMP280;58438;51.200;7.252;2023-04-25T10:07:49;97538.19;;;7.49
64458;BMP280;58438;51.200;7.252;2023-04-25T10:10:37;97536.69;;;7.48
64458;BMP280;58438;51.200;7.252;2023-04-25T10:13:27;97543.13;;;7.59
64458;BMP280;58438;51.200;7.252;2023-04-25T18:15:55;97765.34;;;7.20
64458;BMP280;58438;51.200;7.252;2023-04-25T18:18:42;97762.50;;;7.23
64458;BMP280;58438;51.200;7.252;2023-04-25T18:21:31;97767.75;;;7.18
64458;BMP280;58438;51.200;7.252;2023-04-25T18:24:19;97762.47;;;7.14
64458;BMP280;58438;51.200;7.252;2023-04-25T18:27:06;97773.59;;;7.16
64458;BMP280;58438;51.200;7.252;2023-04-25T18:29:54;97779.94;;;7.22
64458;BMP280;58438;51.200;7.252;2023-04-25T18:32:42;97787.16;;;7.16
64458;BMP280;58438;51.200;7.252;2023-04-25T18:35:30;97785.34;;;7.13
64458;BMP280;58438;51.200;7.252;2023-04-25T18:38:17;97791.94;;;7.12
64458;BMP280;58438;51.200;7.252;2023-04-25T18:41:16;97785.47;;;7.10
64458;BMP280;58438;51.200;7.252;2023-04-25T18:44:23;97795.09;;;7.11
64458;BMP280;58438;51.200;7.252;2023-04-25T18:47:10;97801.56;;;7.04
64458;BMP280;58438;51.200;7.252;2023-04-25T18:50:00;97810.88;;;7.03
64458;BMP280;58438;51.200;7.252;2023-04-25T18:52:47;97813.88;;;6.96
64458;BMP280;58438;51.200;7.252;2023-04-25T18:55:35;97811.75;;;7.00
64458;BMP280;58438;51.200;7.252;2023-04-25T18:58:22;97814.31;;;7.04
64458;BMP280;58438;51.200;7.252;2023-04-25T19:01:09;97813.41;;;6.98
64458;BMP280;58438;51.200;7.252;2023-04-25T19:03:56;97817.16;;;7.00
64458;BMP280;58438;51.200;7.252;2023-04-25T19:06:45;97820.75;;;6.97
64458;BMP280;58438;51.200;7.252;2023-04-25T19:09:34;97826.16;;;6.88
64458;BMP280;58438;51.200;7.252;2023-04-25T19:12:21;97830.66;;;6.91
64458;BMP280;58438;51.200;7.252;2023-04-25T19:15:08;97828.16;;;6.76
64458;BMP280;58438;51.200;7.252;2023-04-25T19:17:56;97836.81;;;6.83
64458;BMP280;58438;51.200;7.252;2023-04-25T19:20:43;97840.38;;;6.80
64458;BMP280;58438;51.200;7.252;2023-04-25T19:23:32;97841.56;;;6.79
64458;BMP280;58438;51.200;7.252;2023-04-25T19:26:19;97853.16;;;6.80
64458;BMP280;58438;51.200;7.252;2023-04-25T19:29:07;97847.09;;;6.76
64458;BMP280;58438;51.200;7.252;2023-04-25T19:31:55;97852.41;;;6.79
64458;BMP280;58438;51.200;7.252;2023-04-25T19:34:44;97850.09;;;6.69
64458;BMP280;58438;51.200;7.252;2023-04-25T19:37:31;97850.31;;;6.62
64458;BMP280;58438;51.200;7.252;2023-04-25T19:40:19;97850.84;;;6.69
64458;BMP280;58438;51.200;7.252;2023-04-25T19:43:07;97850.50;;;6.67
64458;BMP280;58438;51.200;7.252;2023-04-25T19:45:55;97858.63;;;6.67
64458;BMP280;58438;51.200;7.252;2023-04-25T19:48:43;97859.63;;;6.61
64458;BMP280;58438;51.200;7.252;2023-04-25T19:51:32;97852.44;;;6.58
64458;BMP280;58438;51.200;7.252;2023-04-25T19:54:19;97856.38;;;6.66
64458;BMP280;58438;51.200;7.252;2023-04-25T19:57:09;97857.25;;;6.63
64458;BMP280;58438;51.200;7.252;2023-04-25T19:59:56;97870.72;;;6.54
64458;BMP280;58438;51.200;7.252;2023-04-25T20:02:44;97868.78;;;6.54
64458;BMP280;58438;51.200;7.252;2023-04-25T20:05:31;97869.16;;;6.44
64458;BMP280;58438;51.200;7.252;2023-04-25T20:08:18;97875.66;;;6.46
64458;BMP280;58438;51.200;7.252;2023-04-25T20:11:05;97871.09;;;6.43
64458;BMP280;58438;51.200;7.252;2023-04-25T20:13:54;97870.34;;;6.43
64458;BMP280;58438;51.200;7.252;2023-04-25T20:16:42;97880.50;;;6.39
64458;BMP280;58438;51.200;7.252;2023-04-25T20:19:30;97873.13;;;6.30
64458;BMP280;58438;51.200;7.252;2023-04-25T20:22:17;97873.50;;;6.07
64458;BMP280;58438;51.200;7.252;2023-04-25T20:25:04;97881.97;;;5.97
64458;BMP280;58438;51.200;7.252;2023-04-25T20:27:52;97877.72;;;6.08
64458;BMP280;58438;51.200;7.252;2023-04-25T20:30:41;97884.13;;;5.89
64458;BMP280;58438;51.200;7.252;2023-04-25T20:33:28;97881.66;;;5.82
64458;BMP280;58438;51.200;7.252;2023-04-25T20:36:15;97886.94;;;5.86
64458;BMP280;58438;51.200;7.252;2023-04-25T20:39:04;97889.56;;;5.77
64458;BMP280;58438;51.200;7.252;2023-04-25T20:41:52;97883.91;;;5.84
64458;BMP280;58438;51.200;7.252;2023-04-25T20:44:41;97892.13;;;5.80
64458;BMP280;58438;51.200;7.252;2023-04-25T20:47:30;97887.84;;;5.70
64458;BMP280;58438;51.200;7.252;2023-04-25T20:50:17;97883.63;;;5.69
64458;BMP280;58438;51.200;7.252;2023-04-25T20:53:05;97886.22;;;5.73
64458;BMP280;58438;51.200;7.252;2023-04-25T20:55:53;97891.63;;;5.60
64458;BMP280;58438;51.200;7.252;2023-04-25T20:58:40;97887.38;;;5.72
64458;BMP280;58438;51.200;7.252;2023-04-25T21:01:27;97890.19;;;5.81
64458;BMP280;58438;51.200;7.252;2023-04-25T21:04:16;97883.94;;;5.71
64458;BMP280;58438;51.200;7.252;2023-04-25T21:07:03;97881.59;;;5.61
64458;BMP280;58438;51.200;7.252;2023-04-25T21:09:50;97883.19;;;5.58
64458;BMP280;58438;51.200;7.252;2023-04-25T21:12:37;97883.41;;;5.64
64458;BMP280;58438;51.200;7.252;2023-04-25T21:15:26;97887.00;;;5.61
64458;BMP280;58438;51.200;7.252;2023-04-25T21:18:13;97890.31;;;5.65
64458;BMP280;58438;51.200;7.252;2023-04-25T21:21:02;97893.47;;;5.63
64458;BMP280;58438;51.200;7.252;2023-04-25T21:23:50;97899.94;;;5.66
64458;BMP280;58438;51.200;7.252;2023-04-25T21:26:37;97900.50;;;5.61
64458;BMP280;58438;51.200;7.252;2023-04-25T21:29:23;97897.47;;;5.59
64458;BMP280;58438;51.200;7.252;2023-04-25T21:32:10;97902.56;;;5.57
64458;BMP280;58438;51.200;7.252;2023-04-25T21:35:01;97905.91;;;5.48
64458;BMP280;58438;51.200;7.252;2023-04-25T21:37:50;97902.31;;;5.51
64458;BMP280;58438;51.200;7.252;2023-04-25T21:40:38;97905.78;;;5.39
64458;BMP280;58438;51.200;7.252;2023-04-25T21:43:25;97907.63;;;5.42
64458;BMP280;58438;51.200;7.252;2023-04-25T21:46:13;97918.50;;;5.39
64458;BMP280;58438;51.200;7.252;2023-04-25T21:49:08;97912.03;;;5.36
64458;BMP280;58438;51.200;7.252;2023-04-25T21:51:56;97910.50;;;5.35
64458;BMP280;58438;51.200;7.252;2023-04-25T21:54:45;97914.53;;;5.31
64458;BMP280;58438;51.200;7.252;2023-04-25T21:57:31;97918.94;;;5.25
64458;BMP280;58438;51.200;7.252;2023-04-25T22:00:19;97912.13;;;5.20
64458;BMP280;58438;51.200;7.252;2023-04-25T22:03:09;97922.72;;;5.15
64458;BMP280;58438;51.200;7.252;2023-04-25T22:05:59;97916.22;;;5.12
64458;BMP280;58438;51.200;7.252;2023-04-25T22:08:46;97917.19;;;5.06
64458;BMP280;58438;51.200;7.252;2023-04-25T22:11:35;97919.97;;;5.03
64458;BMP280;58438;51.200;7.252;2023-04-25T22:14:22;97919.75;;;4.97
64458;BMP280;58438;51.200;7.252;2023-04-25T22:17:11;97916.72;;;4.95
64458;BMP280;58438;51.200;7.252;2023-04-25T22:19:59;97922.94;;;4.80
64458;BMP280;58438;51.200;7.252;2023-04-25T22:22:47;97919.84;;;4.81
64458;BMP280;58438;51.200;7.252;2023-04-25T22:25:34;97916.44;;;4.77
64458;BMP280;58438;51.200;7.252;2023-04-25T22:28:23;97931.28;;;4.69
64458;BMP280;58438;51.200;7.252;2023-04-25T22:31:10;97924.31;;;4.72
64458;BMP280;58438;51.200;7.252;2023-04-25T22:33:57;97932.06;;;4.70
64458;BMP280;58438;51.200;7.252;2023-04-25T22:36:44;97938.41;;;4.63
64458;BMP280;58438;51.200;7.252;2023-04-25T22:39:31;97942.38;;;4.59
64458;BMP280;58438;51.200;7.252;2023-04-25T22:42:18;97949.19;;;4.63
64458;BMP280;58438;51.200;7.252;2023-04-25T22:45:07;97948.63;;;4.56
64458;BMP280;58438;51.200;7.252;2023-04-25T22:47:54;97956.78;;;4.52
64458;BMP280;58438;51.200;7.252;2023-04-25T22:50:41;97959.16;;;4.50
64458;BMP280;58438;51.200;7.252;2023-04-25T22:53:30;97962.78;;;4.44
64458;BMP280;58438;51.200;7.252;2023-04-25T22:56:18;97957.41;;;4.44
64458;BMP280;58438;51.200;7.252;2023-04-25T22:59:05;97958.16;;;4.44
64458;BMP280;58438;51.200;7.252;2023-04-25T23:01:56;97952.53;;;4.39
64458;BMP280;58438;51.200;7.252;2023-04-25T23:04:45;97955.31;;;4.35
64458;BMP280;58438;51.200;7.252;2023-04-25T23:07:31;97952.81;;;4.28
64458;BMP280;58438;51.200;7.252;2023-04-25T23:10:19;97959.00;;;4.25
64458;BMP280;58438;51.200;7.252;2023-04-25T23:13:07;97966.75;;;4.23
64458;BMP280;58438;51.200;7.252;2023-04-25T23:15:54;97964.16;;;4.20
64458;BMP280;58438;51.200;7.252;2023-04-25T23:18:42;97967.78;;;4.13
64458;BMP280;58438;51.200;7.252;2023-04-25T23:21:30;97960.50;;;4.10
64458;BMP280;58438;51.200;7.252;2023-04-25T23:24:18;97952.97;;;4.05
64458;BMP280;58438;51.200;7.252;2023-04-25T23:27:05;97958.34;;;4.05
64458;BMP280;58438;51.200;7.252;2023-04-25T23:29:52;97958.69;;;4.07
64458;BMP280;58438;51.200;7.252;2023-04-25T23:32:41;97966.78;;;4.07
64458;BMP280;58438;51.200;7.252;2023-04-25T23:35:29;97960.97;;;4.09
64458;BMP280;58438;51.200;7.252;2023-04-25T23:38:16;97965.75;;;4.01
64458;BMP280;58438;51.200;7.252;2023-04-25T23:41:03;97963.47;;;4.00
64458;BMP280;58438;51.200;7.252;2023-04-25T23:43:50;97970.88;;;3.96
64458;BMP280;58438;51.200;7.252;2023-04-25T23:46:37;97969.53;;;3.88
64458;BMP280;58438;51.200;7.252;2023-04-25T23:49:24;97967.59;;;3.88
64458;BMP280;58438;51.200;7.252;2023-04-25T23:52:13;97972.13;;;3.91
64458;BMP280;58438;51.200;7.252;2023-04-25T23:55:00;97971.63;;;3.96
64458;BMP280;58438;51.200;7.252;2023-04-25T23:57:50;97976.34;;;3.92
